Gnv Atlas — IBUH — position and weather

sailwx.info

Track history (hours):
 
Tides and Currents Weather Stations Pressure Air Temp Water Temp Dewpoint Dewpoint Depression Visibility Wind Speed Wind Dir Waves Ship Positions

Gnv Atlas

Last reported at 2017-Sep-22 02:01 UTC. Time now 2017-Sep-22 20:57 UTC.
Position N 41°05' E 002°34'.

Length 162 m; draft 6.2 m.

Type: Passenger vessel. MMSI: 247163100.

Date/timePositionNaut miles runAvg speedWind from/ knotsBaromVisibWave heightAir tempDewpointWater temp
2017-Sep-22 02:01N 41°05' E 002°34'13618.8
2017-Sep-21 18:46N 43°11' E 003°42'1218.9
2017-Sep-21 18:09N 43°23' E 003°45'1 9.0
2017-Sep-21 18:00N 43°24' E 003°44'1 1.2
2017-Sep-21 17:11N 43°24' E 003°42'0 0.0
2017-Sep-21 16:56N 43°24' E 003°42'0 0.0
2017-Sep-21 16:29N 43°24' E 003°42'0 0.0
2017-Sep-21 15:59N 43°24' E 003°42'0 0.0
2017-Sep-21 15:29N 43°24' E 003°42'0 0.0
2017-Sep-21 14:59N 43°24' E 003°42'0 0.0
2017-Sep-21 14:26N 43°24' E 003°42'0 0.0
2017-Sep-21 13:59N 43°24' E 003°42'0 0.0
2017-Sep-21 13:23N 43°24' E 003°42'0 0.0
2017-Sep-21 12:59N 43°24' E 003°42'0 0.0
2017-Sep-21 12:29N 43°24' E 003°42'0 0.0
2017-Sep-21 11:59N 43°24' E 003°42'0 0.0
2017-Sep-21 11:29N 43°24' E 003°42'0 0.0
2017-Sep-21 10:41N 43°24' E 003°42'0 0.0
2017-Sep-21 10:17N 43°24' E 003°42'0 0.0
2017-Sep-21 09:05N 43°24' E 003°42'0 0.1
2017-Sep-21 08:59N 43°24' E 003°42'0 0.0
2017-Sep-21 07:44N 43°24' E 003°42'0 0.0
2017-Sep-21 07:29N 43°24' E 003°42'3 4.9
2017-Sep-21 06:55N 43°22' E 003°45'818.6
2017-Sep-21 06:31N 43°15' E 003°45'1019.0
2017-Sep-21 06:00N 43°05' E 003°41'8118.9
2017-Sep-21 01:42N 41°47' E 003°13'420.1
2017-Sep-21 01:30N 41°44' E 003°10'4819.7
2017-Sep-20 23:06N 41°04' E 002°35'218.8
2017-Sep-20 23:00N 41°03' E 002°33'919.2
2017-Sep-20 22:30N 40°55' E 002°26'1019.6
2017-Sep-20 22:00N 40°47' E 002°19'1019.3
2017-Sep-20 21:30N 40°39' E 002°12'1019.3
2017-Sep-20 21:00N 40°31' E 002°05'919.1
2017-Sep-20 20:31N 40°23' E 001°58'1019.4
2017-Sep-20 20:00N 40°15' E 001°50'1019.2
2017-Sep-20 19:31N 40°07' E 001°43'1019.0
2017-Sep-20 19:00N 39°59' E 001°36'1019.2
2017-Sep-20 18:30N 39°51' E 001°30'15419.5
2017-Sep-20 10:35N 37°44' W 000°21'219.4
2017-Sep-20 10:30N 37°42' W 000°23'919.4
2017-Sep-20 10:00N 37°35' W 000°30'1519.3
2017-Sep-20 09:14N 37°23' W 000°42'418.9
2017-Sep-20 09:01N 37°20' W 000°45'1118.9
2017-Sep-20 08:27N 37°12' W 000°54'4 0.2
2017-Sep-19 11:56N 37°10' W 000°59'1219.9
2017-Sep-19 11:20N 37°20' W 000°49'719.6
2017-Sep-19 11:00N 37°25' W 000°44'1019.6
2017-Sep-19 10:30N 37°32' W 000°36'1019.5
2017-Sep-19 09:59N 37°41' W 000°29'2019.2
2017-Sep-19 08:57N 37°57' W 000°16'12519.2
2017-Sep-19 02:27N 39°45' E 001°07'819.0
2017-Sep-19 02:00N 39°52' E 001°11'1019.1
2017-Sep-19 01:30N 40°01' E 001°17'919.1
2017-Sep-19 01:00N 40°09' E 001°23'919.0
2017-Sep-19 00:30N 40°18' E 001°28'918.5
2017-Sep-19 00:01N 40°26' E 001°34'918.1
2017-Sep-18 23:30N 40°34' E 001°40'918.3
2017-Sep-18 22:59N 40°42' E 001°46'918.4
2017-Sep-18 22:30N 40°50' E 001°52'1118.6
2017-Sep-18 21:56N 40°59' E 001°59'818.5
2017-Sep-18 21:30N 41°06' E 002°04'4 0.4
2017-Sep-18 12:53N 41°09' E 002°07'718.2
2017-Sep-18 12:30N 41°03' E 002°02'918.0
2017-Sep-18 12:00N 40°55' E 001°57'918.2
2017-Sep-18 11:30N 40°47' E 001°51'918.4
2017-Sep-18 11:00N 40°38' E 001°46'918.5
2017-Sep-18 10:30N 40°30' E 001°41'919.0
2017-Sep-18 10:00N 40°22' E 001°35'919.0
2017-Sep-18 09:30N 40°13' E 001°29'918.9
2017-Sep-18 09:00N 40°05' E 001°23'1018.9
2017-Sep-18 08:30N 39°57' E 001°18'5019.0
2017-Sep-18 05:53N 39°12' E 000°48'818.9
2017-Sep-18 05:29N 39°06' E 000°43'3219.3
2017-Sep-18 03:48N 38°36' E 000°25'619.4
2017-Sep-18 03:29N 38°32' E 000°20'1419.3
2017-Sep-18 02:46N 38°20' E 000°10'4319.1
2017-Sep-18 00:30N 37°44' W 000°20'919.1
2017-Sep-18 00:00N 37°37' W 000°27'1519.2
2017-Sep-17 23:14N 37°25' W 000°39'419.1
2017-Sep-17 23:00N 37°22' W 000°43'1219.1
2017-Sep-17 22:22N 37°13' W 000°53'2319.1
2017-Sep-17 21:09N 36°55' W 001°12'319.1
2017-Sep-17 21:00N 36°53' W 001°14'2419.7
2017-Sep-17 19:47N 36°35' W 001°33'42 1.7
2017-Sep-16 19:00N 37°09' W 001°01'815.2
2017-Sep-16 18:30N 37°14' W 000°55'815.1
2017-Sep-16 18:00N 37°20' W 000°49'815.1
2017-Sep-16 17:30N 37°26' W 000°43'815.5
2017-Sep-16 17:00N 37°32' W 000°37'815.2
2017-Sep-16 16:30N 37°38' W 000°31'815.3
2017-Sep-16 16:00N 37°44' W 000°25'1515.2
2017-Sep-16 15:01N 37°57' W 000°15'112.0
2017-Sep-16 14:55N 37°58' W 000°14'12817.9
2017-Sep-16 07:47N 39°43' E 001°18'518.3
2017-Sep-16 07:30N 39°48' E 001°22'917.9
2017-Sep-16 07:00N 39°55' E 001°29'917.6
2017-Sep-16 06:30N 40°02' E 001°35'1019.4
2017-Sep-16 06:00N 40°10' E 001°43'1019.5
2017-Sep-16 05:30N 40°18' E 001°50'1019.3
2017-Sep-16 05:00N 40°26' E 001°58'1019.2
2017-Sep-16 04:30N 40°34' E 002°05'1019.0
2017-Sep-16 04:00N 40°42' E 002°12'1019.1
2017-Sep-16 03:30N 40°50' E 002°19'919.2
2017-Sep-16 03:00N 40°57' E 002°26'1019.2
2017-Sep-16 02:29N 41°06' E 002°34'13318.7
2017-Sep-15 19:22N 43°09' E 003°43'719.2
2017-Sep-15 19:00N 43°15' E 003°45'917.2
2017-Sep-15 18:30N 43°24' E 003°44'1 2.5
2017-Sep-15 18:00N 43°24' E 003°42'0 0.0
2017-Sep-15 17:28N 43°24' E 003°42'0 0.0
2017-Sep-15 16:58N 43°24' E 003°42'0 0.0
2017-Sep-15 16:28N 43°24' E 003°42'0 0.0
2017-Sep-15 15:58N 43°24' E 003°42'0 0.0
2017-Sep-15 15:28N 43°24' E 003°42'0 0.0
2017-Sep-15 14:58N 43°24' E 003°42'0 0.0
2017-Sep-15 14:28N 43°24' E 003°42'0 0.0
2017-Sep-15 13:58N 43°24' E 003°42'0 0.0
2017-Sep-15 13:25N 43°24' E 003°42'0 0.0
2017-Sep-15 10:55N 43°24' E 003°42'0 0.0
2017-Sep-15 10:28N 43°24' E 003°42'1 2.6
2017-Sep-15 09:59N 43°24' E 003°44'714.8
2017-Sep-15 09:30N 43°17' E 003°45'918.7
2017-Sep-15 09:00N 43°08' E 003°41'14417.7
2017-Sep-15 00:54N 41°04' E 002°03'818.0
2017-Sep-15 00:27N 40°58' E 001°57'917.9
2017-Sep-14 23:56N 40°49' E 001°53'817.8
2017-Sep-14 23:30N 40°42' E 001°49'917.7
2017-Sep-14 23:00N 40°34' E 001°44'917.3
2017-Sep-14 22:30N 40°26' E 001°39'917.3
2017-Sep-14 22:00N 40°20' E 001°32'917.4
2017-Sep-14 21:30N 40°13' E 001°25'917.8
2017-Sep-14 21:00N 40°05' E 001°18'918.1
2017-Sep-14 20:30N 39°58' E 001°12'918.5
2017-Sep-14 20:00N 39°50' E 001°05'2219.0
2017-Sep-14 18:49N 39°31' E 000°49'618.9
2017-Sep-14 18:30N 39°26' E 000°45'2719.7
2017-Sep-14 17:09N 39°01' E 000°33'919.9
2017-Sep-14 16:41N 38°52' E 000°30'419.9
2017-Sep-14 16:30N 38°48' E 000°29'1019.4
2017-Sep-14 16:00N 38°39' E 000°26'1119.6
2017-Sep-14 15:27N 38°30' E 000°18'919.4
2017-Sep-14 15:00N 38°23' E 000°12'1019.3
2017-Sep-14 14:30N 38°15' E 000°05'1119.3
2017-Sep-14 13:56N 38°05' W 000°02'919.4
2017-Sep-14 13:27N 37°58' W 000°09'919.5
2017-Sep-14 12:59N 37°50' W 000°16'919.5
2017-Sep-14 12:30N 37°43' W 000°22'1019.6
2017-Sep-14 12:00N 37°35' W 000°30'1119.4
2017-Sep-14 11:26N 37°26' W 000°38'819.2
2017-Sep-14 11:00N 37°20' W 000°45'918.9
2017-Sep-14 10:30N 37°13' W 000°53'1019.0
2017-Sep-14 09:58N 37°05' W 001°01'1419.2
2017-Sep-14 09:15N 36°54' W 001°12'519.2
2017-Sep-14 09:00N 36°51' W 001°16'1019.6
2017-Sep-14 08:30N 36°43' W 001°24'1520.1
2017-Sep-14 07:46N 36°31' W 001°35'1319.9
2017-Sep-14 07:07N 36°21' W 001°45'8219.2
2017-Sep-14 02:51N 35°20' W 002°52'5 1.3
2017-Sep-13 23:05N 35°16' W 002°55'0 1.2
2017-Sep-13 23:00N 35°16' W 002°55'6818.4
2017-Sep-13 19:18N 36°08' W 002°01'1719.0
2017-Sep-13 18:24N 36°21' W 001°47'918.6
2017-Sep-13 17:54N 36°28' W 001°40'1018.6
2017-Sep-13 17:21N 36°36' W 001°32'718.9
2017-Sep-13 17:00N 36°42' W 001°27'918.7
2017-Sep-13 16:30N 36°49' W 001°20'1019.3
2017-Sep-13 15:58N 36°57' W 001°12'919.6
2017-Sep-13 15:29N 37°05' W 001°04'1019.6
2017-Sep-13 14:58N 37°12' W 000°56'1019.7
2017-Sep-13 14:28N 37°20' W 000°48'919.7
2017-Sep-13 14:00N 37°27' W 000°41'1019.9
2017-Sep-13 13:30N 37°34' W 000°33'1019.5
2017-Sep-13 13:00N 37°43' W 000°26'1719.6
2017-Sep-13 12:07N 37°57' W 000°14'319.3
2017-Sep-13 11:56N 38°00' W 000°12'12019.0
2017-Sep-13 05:38N 39°44' E 001°05'219.5
2017-Sep-13 05:30N 39°46' E 001°07'1019.5
2017-Sep-13 05:00N 39°55' E 001°13'1019.6
2017-Sep-13 04:30N 40°04' E 001°19'1019.8
2017-Sep-13 04:00N 40°12' E 001°25'1019.5
2017-Sep-13 03:30N 40°21' E 001°31'1019.2
2017-Sep-13 03:00N 40°29' E 001°37'1019.2
2017-Sep-13 02:30N 40°37' E 001°44'918.9
2017-Sep-13 02:00N 40°46' E 001°50'919.0
2017-Sep-13 01:30N 40°54' E 001°55'918.9
2017-Sep-13 01:00N 41°03' E 002°00'6 0.6
2017-Sep-12 15:14N 41°08' E 002°06'618.5
2017-Sep-12 14:55N 41°02' E 002°02'818.3
2017-Sep-12 14:28N 40°55' E 001°57'818.0
2017-Sep-12 14:00N 40°48' E 001°52'918.0
2017-Sep-12 13:30N 40°40' E 001°47'917.6
2017-Sep-12 13:00N 40°32' E 001°42'917.5
2017-Sep-12 12:30N 40°24' E 001°37'817.1
2017-Sep-12 12:00N 40°16' E 001°31'917.1
2017-Sep-12 11:30N 40°09' E 001°26'917.2
2017-Sep-12 11:00N 40°01' E 001°21'917.3
2017-Sep-12 10:30N 39°54' E 001°16'11717.6
2017-Sep-12 03:52N 38°11' E 000°02'617.9
2017-Sep-12 03:30N 38°06' W 000°02'917.8
2017-Sep-12 03:01N 37°59' W 000°08'917.6
2017-Sep-12 02:30N 37°51' W 000°15'  
Track history (hours):
 
Tides and Currents Weather Stations Pressure Air Temp Water Temp Dewpoint Dewpoint Depression Visibility Wind Speed Wind Dir Waves Ship Positions

Gnv Atlas

Last reported at 2017-Sep-22 02:01 UTC. Time now 2017-Sep-22 20:57 UTC.
Position N 41°05' E 002°34'.

Length 162 m; draft 6.2 m.

Type: Passenger vessel. MMSI: 247163100.

Date/timePositionNaut miles runAvg speedWind from/ knotsBaromVisibWave heightAir tempDewpointWater temp
2017-Sep-22 02:01N 41°05' E 002°34'13618.8
2017-Sep-21 18:46N 43°11' E 003°42'1218.9
2017-Sep-21 18:09N 43°23' E 003°45'1 9.0
2017-Sep-21 18:00N 43°24' E 003°44'1 1.2
2017-Sep-21 17:11N 43°24' E 003°42'0 0.0
2017-Sep-21 16:56N 43°24' E 003°42'0 0.0
2017-Sep-21 16:29N 43°24' E 003°42'0 0.0
2017-Sep-21 15:59N 43°24' E 003°42'0 0.0
2017-Sep-21 15:29N 43°24' E 003°42'0 0.0
2017-Sep-21 14:59N 43°24' E 003°42'0 0.0
2017-Sep-21 14:26N 43°24' E 003°42'0 0.0
2017-Sep-21 13:59N 43°24' E 003°42'0 0.0
2017-Sep-21 13:23N 43°24' E 003°42'0 0.0
2017-Sep-21 12:59N 43°24' E 003°42'0 0.0
2017-Sep-21 12:29N 43°24' E 003°42'0 0.0
2017-Sep-21 11:59N 43°24' E 003°42'0 0.0
2017-Sep-21 11:29N 43°24' E 003°42'0 0.0
2017-Sep-21 10:41N 43°24' E 003°42'0 0.0
2017-Sep-21 10:17N 43°24' E 003°42'0 0.0
2017-Sep-21 09:05N 43°24' E 003°42'0 0.1
2017-Sep-21 08:59N 43°24' E 003°42'0 0.0
2017-Sep-21 07:44N 43°24' E 003°42'0 0.0
2017-Sep-21 07:29N 43°24' E 003°42'3 4.9
2017-Sep-21 06:55N 43°22' E 003°45'818.6
2017-Sep-21 06:31N 43°15' E 003°45'1019.0
2017-Sep-21 06:00N 43°05' E 003°41'8118.9
2017-Sep-21 01:42N 41°47' E 003°13'420.1
2017-Sep-21 01:30N 41°44' E 003°10'4819.7
2017-Sep-20 23:06N 41°04' E 002°35'218.8
2017-Sep-20 23:00N 41°03' E 002°33'919.2
2017-Sep-20 22:30N 40°55' E 002°26'1019.6
2017-Sep-20 22:00N 40°47' E 002°19'1019.3
2017-Sep-20 21:30N 40°39' E 002°12'1019.3
2017-Sep-20 21:00N 40°31' E 002°05'919.1
2017-Sep-20 20:31N 40°23' E 001°58'1019.4
2017-Sep-20 20:00N 40°15' E 001°50'1019.2
2017-Sep-20 19:31N 40°07' E 001°43'1019.0
2017-Sep-20 19:00N 39°59' E 001°36'1019.2
2017-Sep-20 18:30N 39°51' E 001°30'15419.5
2017-Sep-20 10:35N 37°44' W 000°21'219.4
2017-Sep-20 10:30N 37°42' W 000°23'919.4
2017-Sep-20 10:00N 37°35' W 000°30'1519.3
2017-Sep-20 09:14N 37°23' W 000°42'418.9
2017-Sep-20 09:01N 37°20' W 000°45'1118.9
2017-Sep-20 08:27N 37°12' W 000°54'4 0.2
2017-Sep-19 11:56N 37°10' W 000°59'1219.9
2017-Sep-19 11:20N 37°20' W 000°49'719.6
2017-Sep-19 11:00N 37°25' W 000°44'1019.6
2017-Sep-19 10:30N 37°32' W 000°36'1019.5
2017-Sep-19 09:59N 37°41' W 000°29'2019.2
2017-Sep-19 08:57N 37°57' W 000°16'12519.2
2017-Sep-19 02:27N 39°45' E 001°07'819.0
2017-Sep-19 02:00N 39°52' E 001°11'1019.1
2017-Sep-19 01:30N 40°01' E 001°17'919.1
2017-Sep-19 01:00N 40°09' E 001°23'919.0
2017-Sep-19 00:30N 40°18' E 001°28'918.5
2017-Sep-19 00:01N 40°26' E 001°34'918.1
2017-Sep-18 23:30N 40°34' E 001°40'918.3
2017-Sep-18 22:59N 40°42' E 001°46'918.4
2017-Sep-18 22:30N 40°50' E 001°52'1118.6
2017-Sep-18 21:56N 40°59' E 001°59'818.5
2017-Sep-18 21:30N 41°06' E 002°04'4 0.4
2017-Sep-18 12:53N 41°09' E 002°07'718.2
2017-Sep-18 12:30N 41°03' E 002°02'918.0
2017-Sep-18 12:00N 40°55' E 001°57'918.2
2017-Sep-18 11:30N 40°47' E 001°51'918.4
2017-Sep-18 11:00N 40°38' E 001°46'918.5
2017-Sep-18 10:30N 40°30' E 001°41'919.0
2017-Sep-18 10:00N 40°22' E 001°35'919.0
2017-Sep-18 09:30N 40°13' E 001°29'918.9
2017-Sep-18 09:00N 40°05' E 001°23'1018.9
2017-Sep-18 08:30N 39°57' E 001°18'5019.0
2017-Sep-18 05:53N 39°12' E 000°48'818.9
2017-Sep-18 05:29N 39°06' E 000°43'3219.3
2017-Sep-18 03:48N 38°36' E 000°25'619.4
2017-Sep-18 03:29N 38°32' E 000°20'1419.3
2017-Sep-18 02:46N 38°20' E 000°10'4319.1
2017-Sep-18 00:30N 37°44' W 000°20'919.1
2017-Sep-18 00:00N 37°37' W 000°27'1519.2
2017-Sep-17 23:14N 37°25' W 000°39'419.1
2017-Sep-17 23:00N 37°22' W 000°43'1219.1
2017-Sep-17 22:22N 37°13' W 000°53'2319.1
2017-Sep-17 21:09N 36°55' W 001°12'319.1
2017-Sep-17 21:00N 36°53' W 001°14'2419.7
2017-Sep-17 19:47N 36°35' W 001°33'42 1.7
2017-Sep-16 19:00N 37°09' W 001°01'815.2
2017-Sep-16 18:30N 37°14' W 000°55'815.1
2017-Sep-16 18:00N 37°20' W 000°49'815.1
2017-Sep-16 17:30N 37°26' W 000°43'815.5
2017-Sep-16 17:00N 37°32' W 000°37'815.2
2017-Sep-16 16:30N 37°38' W 000°31'815.3
2017-Sep-16 16:00N 37°44' W 000°25'1515.2
2017-Sep-16 15:01N 37°57' W 000°15'112.0
2017-Sep-16 14:55N 37°58' W 000°14'12817.9
2017-Sep-16 07:47N 39°43' E 001°18'518.3
2017-Sep-16 07:30N 39°48' E 001°22'917.9
2017-Sep-16 07:00N 39°55' E 001°29'917.6
2017-Sep-16 06:30N 40°02' E 001°35'1019.4
2017-Sep-16 06:00N 40°10' E 001°43'1019.5
2017-Sep-16 05:30N 40°18' E 001°50'1019.3
2017-Sep-16 05:00N 40°26' E 001°58'1019.2
2017-Sep-16 04:30N 40°34' E 002°05'1019.0
2017-Sep-16 04:00N 40°42' E 002°12'1019.1
2017-Sep-16 03:30N 40°50' E 002°19'919.2
2017-Sep-16 03:00N 40°57' E 002°26'1019.2
2017-Sep-16 02:29N 41°06' E 002°34'13318.7
2017-Sep-15 19:22N 43°09' E 003°43'719.2
2017-Sep-15 19:00N 43°15' E 003°45'917.2
2017-Sep-15 18:30N 43°24' E 003°44'1 2.5
2017-Sep-15 18:00N 43°24' E 003°42'0 0.0
2017-Sep-15 17:28N 43°24' E 003°42'0 0.0
2017-Sep-15 16:58N 43°24' E 003°42'0 0.0
2017-Sep-15 16:28N 43°24' E 003°42'0 0.0
2017-Sep-15 15:58N 43°24' E 003°42'0 0.0
2017-Sep-15 15:28N 43°24' E 003°42'0 0.0
2017-Sep-15 14:58N 43°24' E 003°42'0 0.0
2017-Sep-15 14:28N 43°24' E 003°42'0 0.0
2017-Sep-15 13:58N 43°24' E 003°42'0 0.0
2017-Sep-15 13:25N 43°24' E 003°42'0 0.0
2017-Sep-15 10:55N 43°24' E 003°42'0 0.0
2017-Sep-15 10:28N 43°24' E 003°42'1 2.6
2017-Sep-15 09:59N 43°24' E 003°44'714.8
2017-Sep-15 09:30N 43°17' E 003°45'918.7
2017-Sep-15 09:00N 43°08' E 003°41'14417.7
2017-Sep-15 00:54N 41°04' E 002°03'818.0
2017-Sep-15 00:27N 40°58' E 001°57'917.9
2017-Sep-14 23:56N 40°49' E 001°53'817.8
2017-Sep-14 23:30N 40°42' E 001°49'917.7
2017-Sep-14 23:00N 40°34' E 001°44'917.3
2017-Sep-14 22:30N 40°26' E 001°39'917.3
2017-Sep-14 22:00N 40°20' E 001°32'917.4
2017-Sep-14 21:30N 40°13' E 001°25'917.8
2017-Sep-14 21:00N 40°05' E 001°18'918.1
2017-Sep-14 20:30N 39°58' E 001°12'918.5
2017-Sep-14 20:00N 39°50' E 001°05'2219.0
2017-Sep-14 18:49N 39°31' E 000°49'618.9
2017-Sep-14 18:30N 39°26' E 000°45'2719.7
2017-Sep-14 17:09N 39°01' E 000°33'919.9
2017-Sep-14 16:41N 38°52' E 000°30'419.9
2017-Sep-14 16:30N 38°48' E 000°29'1019.4
2017-Sep-14 16:00N 38°39' E 000°26'1119.6
2017-Sep-14 15:27N 38°30' E 000°18'919.4
2017-Sep-14 15:00N 38°23' E 000°12'1019.3
2017-Sep-14 14:30N 38°15' E 000°05'1119.3
2017-Sep-14 13:56N 38°05' W 000°02'919.4
2017-Sep-14 13:27N 37°58' W 000°09'919.5
2017-Sep-14 12:59N 37°50' W 000°16'919.5
2017-Sep-14 12:30N 37°43' W 000°22'1019.6
2017-Sep-14 12:00N 37°35' W 000°30'1119.4
2017-Sep-14 11:26N 37°26' W 000°38'819.2
2017-Sep-14 11:00N 37°20' W 000°45'918.9
2017-Sep-14 10:30N 37°13' W 000°53'1019.0
2017-Sep-14 09:58N 37°05' W 001°01'1419.2
2017-Sep-14 09:15N 36°54' W 001°12'519.2
2017-Sep-14 09:00N 36°51' W 001°16'1019.6
2017-Sep-14 08:30N 36°43' W 001°24'1520.1
2017-Sep-14 07:46N 36°31' W 001°35'1319.9
2017-Sep-14 07:07N 36°21' W 001°45'8219.2
2017-Sep-14 02:51N 35°20' W 002°52'5 1.3
2017-Sep-13 23:05N 35°16' W 002°55'0 1.2
2017-Sep-13 23:00N 35°16' W 002°55'6818.4
2017-Sep-13 19:18N 36°08' W 002°01'1719.0
2017-Sep-13 18:24N 36°21' W 001°47'918.6
2017-Sep-13 17:54N 36°28' W 001°40'1018.6
2017-Sep-13 17:21N 36°36' W 001°32'718.9
2017-Sep-13 17:00N 36°42' W 001°27'918.7
2017-Sep-13 16:30N 36°49' W 001°20'1019.3
2017-Sep-13 15:58N 36°57' W 001°12'919.6
2017-Sep-13 15:29N 37°05' W 001°04'1019.6
2017-Sep-13 14:58N 37°12' W 000°56'1019.7
2017-Sep-13 14:28N 37°20' W 000°48'919.7
2017-Sep-13 14:00N 37°27' W 000°41'1019.9
2017-Sep-13 13:30N 37°34' W 000°33'1019.5
2017-Sep-13 13:00N 37°43' W 000°26'1719.6
2017-Sep-13 12:07N 37°57' W 000°14'319.3
2017-Sep-13 11:56N 38°00' W 000°12'12019.0
2017-Sep-13 05:38N 39°44' E 001°05'219.5
2017-Sep-13 05:30N 39°46' E 001°07'1019.5
2017-Sep-13 05:00N 39°55' E 001°13'1019.6
2017-Sep-13 04:30N 40°04' E 001°19'1019.8
2017-Sep-13 04:00N 40°12' E 001°25'1019.5
2017-Sep-13 03:30N 40°21' E 001°31'1019.2
2017-Sep-13 03:00N 40°29' E 001°37'1019.2
2017-Sep-13 02:30N 40°37' E 001°44'918.9
2017-Sep-13 02:00N 40°46' E 001°50'919.0
2017-Sep-13 01:30N 40°54' E 001°55'918.9
2017-Sep-13 01:00N 41°03' E 002°00'6 0.6
2017-Sep-12 15:14N 41°08' E 002°06'618.5
2017-Sep-12 14:55N 41°02' E 002°02'818.3
2017-Sep-12 14:28N 40°55' E 001°57'818.0
2017-Sep-12 14:00N 40°48' E 001°52'918.0
2017-Sep-12 13:30N 40°40' E 001°47'917.6
2017-Sep-12 13:00N 40°32' E 001°42'917.5
2017-Sep-12 12:30N 40°24' E 001°37'817.1
2017-Sep-12 12:00N 40°16' E 001°31'917.1
2017-Sep-12 11:30N 40°09' E 001°26'917.2
2017-Sep-12 11:00N 40°01' E 001°21'917.3
2017-Sep-12 10:30N 39°54' E 001°16'11717.6
2017-Sep-12 03:52N 38°11' E 000°02'617.9
2017-Sep-12 03:30N 38°06' W 000°02'917.8
2017-Sep-12 03:01N 37°59' W 000°08'917.6
2017-Sep-12 02:30N 37°51' W 000°15'  

Dump ship's entire track history